Terminal Aerodrome Forecast
Issued by NWS

Home | Current Version | Previous Version | Text Only | Print | Product List | Glossary On
Versions: 1 2 3 4 5 6 7 8 9 10 11 12 13 14 15 16 17 18 19 20 21 22 23 24 25
000
FTUS43 KGRB 230500
TAFATW
TAF
KATW 230536Z 2306/2406 12003KT 3SM BR SCT005 BKN035
      TEMPO 2306/2308 1SM BR BKN005
     FM230800 VRB03KT 3SM BR OVC005
      TEMPO 2308/2312 1SM BR OVC002
     FM231600 08006KT 6SM BR BKN010
     FM231900 08007KT P6SM BKN023
     FM240200 05003KT 5SM BR BKN012=

USA.gov is the U.S. government's official web portal to all federal, state and local government web resources and services.